VAM | Vabird-VBD

Virtual Vabird! Aerolínea Virtual de habla hispana, desde 2011




 INFORMACIÓN METAR y TAF
METAR FOR YPDN
ADDS - METARS form results

(1138 UTC 12 April 2021)
Data provider http://aviationweather.gov/metar/data/
 
METAR text: YPDN 121130Z 26005KT 9999 FEW021 SCT065 29/24 Q1011
Conditions at: YPDN (DARWIN (CIV/MIL), AU) observed 1130 UTC 12 April 2021
Temperature: 29.0°C (84°F)
Dewpoint: 24.0°C (75°F) [RH = 74%]
Pressure (altimeter): 29.85 inches Hg (1011.0 mb)
Winds: from the W (260 degrees) at 6 MPH (5 knots; 2.6 m/s)
Visibility: 6 or more miles (10+ km)
Ceiling: at least 12,000 feet AGL
Clouds: few clouds at 2100 feet AGL
scattered clouds at 6500 feet AGL
Weather: no significant weather observed at this time

METAR text: YPDN 121100Z 27004KT 9999 FEW025 29/24 Q1010
Conditions at: YPDN (DARWIN (CIV/MIL), AU) observed 1100 UTC 12 April 2021
Temperature: 29.0°C (84°F)
Dewpoint: 24.0°C (75°F) [RH = 74%]
Pressure (altimeter): 29.82 inches Hg (1010.0 mb)
Winds: from the W (270 degrees) at 5 MPH (4 knots; 2.1 m/s)
Visibility: 6 or more miles (10+ km)
Ceiling: at least 12,000 feet AGL
Clouds: few clouds at 2500 feet AGL
Weather: no significant weather observed at this time

Forecast for: YPDN (DARWIN (CIV/MIL), AU)
Text: TAF YPDN 121101Z 1212/1318 26005KT CAVOK
Forecast period: 1200 to 1700 UTC 12 April 2021
Forecast type: FROM: standard forecast or significant change
Winds: from the W (260 degrees) at 6 MPH (5 knots; 2.6 m/s)
Visibility: 6 or more miles (10+ km)
Ceiling: unknown
Clouds: missing
Weather: NSW  (no significant weather)
Text: FM121700 13005KT 9999 FEW015
Forecast period: 1700 UTC 12 April 2021 to 0500 UTC 13 April 2021
Forecast type: FROM: standard forecast or significant change
Winds: from the SE (130 degrees) at 6 MPH (5 knots; 2.6 m/s)
Visibility: 6 or more miles (10+ km)
Ceiling: at least 12,000 feet AGL
Clouds: few clouds at 1500 feet AGL
Weather: no significant weather forecast for this period
Text: FM130500 34010KT 9999 FEW035
Forecast period: 0500 to 1800 UTC 13 April 2021
Forecast type: FROM: standard forecast or significant change
Winds: from the NNW (340 degrees) at 12 MPH (10 knots; 5.1 m/s)
Visibility: 6 or more miles (10+ km)
Ceiling: at least 12,000 feet AGL
Clouds: few clouds at 3500 feet AGL
Weather: no significant weather forecast for this period

 MAPA DE AEROPUERTO

 INFORMACIÓN DE PISTA